Time;durP1;ratioP1;P1;durP2;ratioP2;P2;SDS_P1;SDS_P2;PMS_P1;PMS_P2;Temp;Humidity;BMP_temperature;BMP_pressure;BME280_temperature;BME280_humidity;BME280_pressure;Samples;Min_cycle;Max_cycle;Signal;HPM_P1;HPM_P2
2023/01/28 00:02:13;;;;;;;4.80;2.03;;;2.10;86.40;;;1.01;73.42;102208.28;5030072;28;20411;-72
2023/01/28 00:04:41;;;;;;;5.75;1.95;;;2.10;87.30;;;1.02;72.70;102203.88;5029547;28;20411;-69
2023/01/28 00:07:11;;;;;;;3.78;1.88;;;2.10;87.10;;;1.00;72.19;102205.69;5028727;28;20423;-70
2023/01/28 00:09:39;;;;;;;5.07;1.80;;;2.00;86.70;;;0.93;71.65;102205.09;5029738;28;20411;-71
2023/01/28 00:12:07;;;;;;;4.13;2.00;;;2.00;85.70;;;0.92;72.18;102210.47;5029894;28;20486;-71
2023/01/28 00:14:35;;;;;;;3.95;1.70;;;2.00;86.30;;;0.95;73.41;102205.06;5029480;28;20830;-69
2023/01/28 00:17:06;;;;;;;4.83;1.70;;;2.00;87.90;;;0.95;72.89;102203.28;5029643;28;20410;-70
2023/01/28 00:19:34;;;;;;;5.50;2.00;;;2.00;87.60;;;0.95;74.54;102216.47;5029552;28;20648;-70
2023/01/28 00:22:03;;;;;;;2.78;1.80;;;2.10;88.60;;;0.97;75.04;102211.09;5029599;28;20465;-70
2023/01/28 00:24:32;;;;;;;3.92;1.92;;;2.00;89.10;;;0.98;72.50;102213.69;5029495;28;20407;-69
2023/01/28 00:27:00;;;;;;;3.77;1.70;;;2.00;87.40;;;0.98;73.52;102212.84;5029372;28;20432;-71
2023/01/28 00:29:28;;;;;;;3.92;1.70;;;2.00;87.30;;;0.98;73.67;102207.56;5029564;28;20414;-71
2023/01/28 00:31:56;;;;;;;3.55;1.60;;;2.00;87.70;;;0.99;73.25;102210.13;5029987;28;20402;-71
2023/01/28 00:34:24;;;;;;;3.47;1.60;;;2.10;87.70;;;0.94;71.71;102211.25;5029400;28;20510;-71
2023/01/28 00:36:56;;;;;;;4.00;1.83;;;2.00;86.10;;;0.96;73.15;102218.16;5029050;28;20922;-69
2023/01/28 00:39:26;;;;;;;5.47;1.95;;;2.00;87.00;;;0.93;72.83;102213.00;5029316;28;20406;-69
2023/01/28 00:41:55;;;;;;;4.32;2.00;;;2.00;87.30;;;0.94;73.68;102213.88;5029576;28;20732;-70
2023/01/28 00:44:23;;;;;;;2.83;1.50;;;2.00;87.90;;;0.93;72.75;102214.78;5029423;28;20418;-69
2023/01/28 00:46:51;;;;;;;4.10;1.67;;;2.00;86.90;;;0.92;73.04;102218.38;5028629;28;20422;-69
2023/01/28 00:49:19;;;;;;;3.72;1.73;;;2.00;86.60;;;0.94;73.55;102214.75;5029317;28;20764;-69
2023/01/28 00:51:48;;;;;;;4.38;2.13;;;2.00;87.40;;;0.95;73.80;102202.41;5029233;28;20402;-69
2023/01/28 00:54:17;;;;;;;4.63;1.85;;;2.00;87.50;;;0.89;73.09;102207.94;5029302;28;20417;-69
2023/01/28 00:56:45;;;;;;;4.70;1.70;;;2.00;87.00;;;0.90;73.93;102215.78;5028930;28;20410;-71
2023/01/28 00:59:15;;;;;;;3.75;1.80;;;2.00;88.00;;;0.92;73.96;102207.81;5029127;28;20405;-70
2023/01/28 01:01:44;;;;;;;4.80;1.95;;;2.00;88.10;;;0.90;73.06;102210.50;5024578;28;20826;-70
2023/01/28 01:04:12;;;;;;;3.35;1.80;;;2.00;87.80;;;0.90;73.06;102210.50;5028258;28;20461;-70
2023/01/28 01:06:40;;;;;;;4.90;2.03;;;1.90;87.50;;;0.89;73.41;102213.22;5025187;28;20742;-70
2023/01/28 01:09:12;;;;;;;3.93;1.80;;;2.00;88.10;;;0.88;72.86;102216.78;5028252;28;20411;-69
2023/01/28 01:11:40;;;;;;;4.18;1.80;;;2.00;87.30;;;0.88;73.41;102207.09;5028520;28;20430;-69
2023/01/28 01:14:10;;;;;;;4.53;1.77;;;2.00;87.30;;;0.88;73.66;102212.34;5028808;28;20757;-71
2023/01/28 01:16:40;;;;;;;4.03;1.73;;;2.00;87.70;;;0.87;72.03;102215.91;5028653;28;20404;-69
2023/01/28 01:19:08;;;;;;;3.55;1.63;;;1.90;86.70;;;0.88;71.63;102214.13;5028817;28;20411;-71
2023/01/28 01:21:36;;;;;;;4.93;1.65;;;2.00;86.10;;;0.89;73.11;102208.78;5028944;28;20402;-69
2023/01/28 01:24:05;;;;;;;4.10;1.80;;;2.00;86.90;;;0.90;72.85;102204.38;5028774;28;20918;-69
2023/01/28 01:26:33;;;;;;;3.67;1.70;;;2.00;87.10;;;0.88;72.84;102200.94;5028624;28;20426;-68
2023/01/28 01:29:01;;;;;;;4.35;2.00;;;1.90;86.80;;;0.86;72.51;102197.50;5028739;28;20403;-68
2023/01/28 01:31:29;;;;;;;4.05;1.77;;;2.00;86.30;;;0.86;72.93;102202.78;5029239;28;20417;-69
2023/01/28 01:33:59;;;;;;;3.25;1.95;;;1.90;87.00;;;0.87;73.15;102200.09;5028782;28;20406;-69
2023/01/28 01:36:27;;;;;;;5.53;2.00;;;1.90;87.10;;;0.89;73.48;102213.22;5028690;28;20395;-69
2023/01/28 01:38:56;;;;;;;4.60;1.98;;;1.90;87.50;;;0.88;72.07;102207.09;5027599;28;20407;-69
2023/01/28 01:41:28;;;;;;;4.22;1.75;;;2.00;87.50;;;0.89;72.76;102207.94;5028677;28;20413;-69
2023/01/28 01:43:59;;;;;;;5.32;2.05;;;2.00;87.30;;;0.85;73.38;102201.94;5028558;28;20403;-72
2023/01/28 01:46:38;;;;;;;4.70;1.90;;;1.90;87.50;;;0.80;72.59;102210.94;5028434;28;20419;-69
2023/01/28 01:49:19;;;;;;;2.95;1.70;;;1.80;87.30;;;0.78;74.00;102210.16;5028179;28;20410;-69
2023/01/28 01:51:54;;;;;;;5.20;2.00;;;1.90;88.10;;;0.81;73.85;102217.94;5028184;28;20399;-71
2023/01/28 01:54:25;;;;;;;4.90;2.20;;;1.90;88.60;;;0.78;73.26;102212.78;5027664;28;20868;-68
2023/01/28 01:56:55;;;;;;;6.07;2.13;;;1.80;87.40;;;0.77;73.01;102214.56;5027263;28;20395;-68
2023/01/28 01:59:30;;;;;;;4.35;1.95;;;1.80;87.70;;;0.76;73.14;102218.13;5027523;28;20415;-69
2023/01/28 02:02:03;;;;;;;5.65;1.92;;;1.80;87.40;;;0.72;72.02;102226.22;5028146;28;20415;-70
2023/01/28 02:04:38;;;;;;;4.38;1.90;;;1.80;87.10;;;0.72;72.26;102231.50;5028608;28;20493;-68
2023/01/28 02:07:11;;;;;;;3.08;1.60;;;1.80;87.00;;;0.72;74.06;102228.88;5027903;28;20422;-69
2023/01/28 02:09:40;;;;;;;3.88;2.00;;;1.80;87.90;;;0.73;73.76;102231.41;5028098;28;20442;-69
2023/01/28 02:12:13;;;;;;;3.77;1.90;;;1.80;87.70;;;0.72;71.85;102242.03;5028174;28;20407;-69
2023/01/28 02:14:47;;;;;;;4.00;2.00;;;1.80;86.50;;;0.74;73.15;102245.47;5027337;28;20807;-69
2023/01/28 02:17:16;;;;;;;5.15;1.90;;;1.80;86.80;;;0.74;72.52;102246.31;5027953;28;20407;-69
2023/01/28 02:19:54;;;;;;;3.88;1.70;;;1.80;87.00;;;0.74;73.48;102230.50;5027686;28;20414;-69
2023/01/28 02:23:17;;;;;;;2.78;1.73;;;1.80;87.60;;;0.73;73.05;102235.81;5028104;28;20818;-69
2023/01/28 02:26:30;;;;;;;4.72;1.90;;;1.80;87.30;;;0.72;73.29;102231.50;5006692;28;20415;-69
2023/01/28 02:29:12;;;;;;;3.90;1.90;;;1.80;87.50;;;0.71;72.60;102245.59;5009316;28;20445;-70
2023/01/28 02:31:51;;;;;;;4.00;1.70;;;1.80;86.50;;;0.69;72.08;102239.50;5028229;28;20822;-69
2023/01/28 02:34:34;;;;;;;4.25;1.90;;;1.80;86.30;;;0.70;72.71;102238.59;5027781;28;20876;-69
2023/01/28 02:37:12;;;;;;;4.50;1.70;;;1.80;86.30;;;0.74;72.21;102240.19;5028200;28;20449;-69
2023/01/28 02:39:47;;;;;;;3.43;1.67;;;1.90;87.00;;;0.75;70.65;102226.09;5028187;28;20414;-69
2023/01/28 02:42:21;;;;;;;3.97;1.60;;;1.80;85.20;;;0.71;71.37;102224.50;5028087;28;20418;-69
2023/01/28 02:44:50;;;;;;;3.92;1.70;;;1.80;84.90;;;0.73;71.25;102217.38;5027751;28;20460;-68
2023/01/28 02:50:11;;;;;;;3.70;1.73;;;1.80;85.10;;;0.70;72.58;102217.50;5027959;28;20946;-69
2023/01/28 02:55:54;;;;;;;4.10;1.63;;;1.70;86.50;;;0.69;71.62;102214.00;5025820;28;20823;-70
2023/01/28 02:58:35;;;;;;;2.97;1.90;;;1.80;86.20;;;0.68;71.48;102203.53;5027350;28;20883;-69
2023/01/28 03:01:16;;;;;;;4.30;1.83;;;1.70;85.20;;;0.66;72.10;102211.50;5026903;28;20888;-69
2023/01/28 03:03:58;;;;;;;4.28;1.75;;;1.70;85.50;;;0.66;72.04;102214.13;5027672;28;20435;-68
2023/01/28 03:06:35;;;;;;;3.10;1.50;;;1.70;85.90;;;0.67;72.24;102207.09;5027174;28;21052;-69
2023/01/28 03:09:23;;;;;;;4.40;1.77;;;1.70;85.90;;;0.66;71.22;102211.50;5027897;28;20398;-69
2023/01/28 03:37:35;;;;;;;3.10;1.70;;;1.70;86.90;;;0.55;73.23;102203.16;5030362;28;20768;-69
2023/01/28 03:40:05;;;;;;;3.88;1.60;;;1.60;86.60;;;0.58;73.01;102210.09;5031082;28;20430;-69
2023/01/28 03:42:34;;;;;;;2.03;1.40;;;1.70;87.70;;;0.57;73.32;102208.38;5030535;28;20403;-69
2023/01/28 03:45:04;;;;;;;4.68;1.60;;;1.60;88.10;;;0.57;72.51;102211.00;5030506;28;20407;-69
2023/01/28 03:47:33;;;;;;;3.72;1.70;;;1.60;87.80;;;0.56;72.90;102209.28;5029414;28;20958;-69
2023/01/28 03:50:06;;;;;;;4.40;1.65;;;1.60;86.70;;;0.54;73.44;102206.72;5030179;28;20967;-69
2023/01/28 03:52:34;;;;;;;5.03;1.70;;;1.60;87.20;;;0.51;72.07;102212.13;5030635;28;20435;-70
2023/01/28 03:55:12;;;;;;;2.97;1.70;;;1.60;86.00;;;0.51;72.29;102223.50;5030530;28;20418;-69
2023/01/28 03:57:43;;;;;;;4.13;1.88;;;1.60;86.50;;;0.50;73.16;102215.66;5029712;28;20450;-69
2023/01/28 04:00:13;;;;;;;4.03;1.85;;;1.60;86.70;;;0.49;72.44;102220.06;5030279;28;20403;-68
2023/01/28 04:02:41;;;;;;;5.50;2.28;;;1.60;86.70;;;0.49;73.32;102212.16;5030734;28;20418;-69
2023/01/28 04:05:14;;;;;;;4.32;2.15;;;1.60;87.10;;;0.48;72.93;102223.63;5030432;28;20496;-69
2023/01/28 04:07:43;;;;;;;3.28;1.60;;;1.60;86.70;;;0.52;72.82;102227.00;5029865;28;20423;-69
2023/01/28 04:10:12;;;;;;;4.05;1.73;;;1.60;86.30;;;0.51;72.35;102226.13;5029675;28;20422;-69
2023/01/28 04:12:40;;;;;;;3.13;1.75;;;1.60;86.60;;;0.48;72.53;102226.25;5029845;28;20780;-69
2023/01/28 04:15:15;;;;;;;4.25;1.63;;;1.60;86.00;;;0.45;72.09;102229.00;5029752;28;20900;-69
2023/01/28 04:17:48;;;;;;;3.17;1.52;;;1.50;86.00;;;0.46;71.54;102233.38;5030112;28;20403;-69
2023/01/28 04:20:18;;;;;;;4.00;1.77;;;1.50;86.90;;;0.43;71.74;102236.13;5020387;28;20425;-69
2023/01/28 04:22:46;;;;;;;4.35;1.60;;;1.50;85.90;;;0.46;72.63;102229.88;5027686;28;20415;-69
2023/01/28 04:25:15;;;;;;;2.97;1.67;;;1.60;86.20;;;0.48;71.33;102236.78;5029101;28;20473;-69
2023/01/28 04:27:43;;;;;;;2.72;1.67;;;1.60;85.70;;;0.49;71.24;102241.16;5029582;28;20431;-69
2023/01/28 04:30:12;;;;;;;2.97;1.60;;;1.60;85.40;;;0.43;71.67;102236.13;5030058;28;20411;-69
2023/01/28 04:32:40;;;;;;;3.23;1.70;;;1.60;85.50;;;0.44;73.05;102239.63;5029871;28;20899;-69
2023/01/28 04:35:09;;;;;;;3.83;1.63;;;1.50;86.40;;;0.44;72.34;102248.41;5029839;28;20407;-69
2023/01/28 04:37:41;;;;;;;2.67;1.53;;;1.60;86.50;;;0.33;71.76;102242.66;5029734;28;20406;-69
2023/01/28 04:40:11;;;;;;;4.00;1.60;;;1.50;85.20;;;0.38;73.39;102248.59;5023298;28;20407;-69
2023/01/28 04:42:39;;;;;;;4.27;1.70;;;1.50;86.40;;;0.40;72.47;102252.06;5029749;28;20462;-69
2023/01/28 04:45:08;;;;;;;4.90;1.80;;;1.50;86.20;;;0.43;71.45;102251.94;5029938;28;20406;-69
2023/01/28 04:47:36;;;;;;;2.70;1.60;;;1.50;85.80;;;0.44;71.46;102245.75;5029043;28;20423;-69
2023/01/28 04:50:05;;;;;;;4.28;1.77;;;1.60;85.50;;;0.45;71.24;102250.09;5029373;28;20419;-69
2023/01/28 04:52:34;;;;;;;2.88;1.63;;;1.50;85.70;;;0.38;71.78;102245.97;5029649;28;20411;-69
2023/01/28 04:55:03;;;;;;;3.60;1.75;;;1.50;84.90;;;0.42;71.54;102251.97;5029371;28;20454;-68
2023/01/28 04:57:32;;;;;;;4.50;1.90;;;1.50;85.20;;;0.41;71.74;102248.47;5029382;28;20421;-69
2023/01/28 05:00:00;;;;;;;3.13;1.60;;;1.50;85.20;;;0.39;71.42;102250.34;5029073;28;20418;-69
2023/01/28 05:02:28;;;;;;;4.10;1.70;;;1.50;84.80;;;0.42;71.37;102252.84;5028679;28;20441;-69
2023/01/28 05:04:56;;;;;;;4.95;1.90;;;1.50;85.10;;;0.44;70.34;102258.06;5027928;28;20418;-69
2023/01/28 05:07:25;;;;;;;3.83;1.55;;;1.50;84.00;;;0.40;69.67;102259.97;5028836;28;20911;-69
2023/01/28 05:09:53;;;;;;;3.38;1.50;;;1.50;83.30;;;0.35;69.02;102254.00;5029211;28;20927;-68
2023/01/28 05:12:22;;;;;;;5.72;1.80;;;1.50;83.40;;;0.31;69.86;102254.19;5028759;28;20538;-68
2023/01/28 05:14:50;;;;;;;3.93;1.63;;;1.40;83.30;;;0.31;69.92;102247.13;5029083;28;21148;-69
2023/01/28 05:17:18;;;;;;;4.80;1.75;;;1.40;83.70;;;0.34;71.40;102252.25;5027242;28;20460;-69
2023/01/28 05:19:47;;;;;;;3.47;1.67;;;1.40;84.30;;;0.40;71.89;102259.09;5028829;28;20546;-68
2023/01/28 05:22:15;;;;;;;3.60;1.75;;;1.50;85.20;;;0.39;70.84;102257.38;5028673;28;20918;-69
2023/01/28 05:24:43;;;;;;;3.97;1.60;;;1.50;84.60;;;0.39;71.82;102250.34;5028936;28;20402;-69
2023/01/28 05:27:11;;;;;;;3.40;1.50;;;1.50;85.50;;;0.40;71.76;102252.06;5028344;28;21041;-69
2023/01/28 05:29:41;;;;;;;2.85;1.80;;;1.50;85.40;;;0.38;71.15;102250.38;5028176;28;20427;-69
2023/01/28 05:32:09;;;;;;;3.58;1.80;;;1.50;84.30;;;0.38;70.78;102253.00;5028791;28;20407;-69
2023/01/28 05:34:37;;;;;;;5.60;1.80;;;1.50;84.50;;;0.40;71.11;102248.56;5028610;28;20422;-69
2023/01/28 05:37:05;;;;;;;3.42;1.60;;;1.50;85.10;;;0.37;70.82;102251.31;5028248;28;20757;-69
2023/01/28 05:39:33;;;;;;;3.63;1.77;;;1.50;84.00;;;0.32;69.80;102254.13;5028647;28;20403;-69
2023/01/28 05:42:01;;;;;;;4.22;1.67;;;1.40;82.70;;;0.34;69.77;102246.16;5028720;28;20407;-70
2023/01/28 05:44:29;;;;;;;4.88;1.70;;;1.50;83.40;;;0.32;69.04;102243.56;5029036;28;20410;-69
2023/01/28 05:46:59;;;;;;;3.67;1.50;;;1.40;82.50;;;0.32;70.48;102247.97;5028421;28;20406;-69
2023/01/28 05:49:27;;;;;;;4.28;1.70;;;1.40;83.00;;;0.33;69.37;102245.31;5028310;28;20477;-69
2023/01/28 05:51:55;;;;;;;4.07;1.80;;;1.50;83.10;;;0.36;70.33;102237.28;5027585;28;20430;-69
2023/01/28 05:54:23;;;;;;;6.00;1.90;;;1.50;83.50;;;0.36;69.67;102239.91;5028392;28;20418;-69
2023/01/28 05:56:51;;;;;;;4.20;1.70;;;1.50;83.00;;;0.37;69.02;102251.31;5027878;28;20505;-69
2023/01/28 05:59:19;;;;;;;4.73;1.83;;;1.40;82.70;;;0.36;68.86;102244.31;5027937;28;20534;-69
2023/01/28 06:01:48;;;;;;;3.05;1.63;;;1.50;82.20;;;0.35;69.96;102243.47;5027724;28;20911;-69
2023/01/28 06:04:19;;;;;;;3.72;1.80;;;1.40;82.60;;;0.38;70.29;102248.59;5027963;28;21041;-69
2023/01/28 06:06:47;;;;;;;4.32;1.67;;;1.50;83.50;;;0.37;69.57;102243.41;5027839;28;21119;-69
2023/01/28 06:09:15;;;;;;;3.78;1.88;;;1.50;83.50;;;0.34;70.78;102244.38;5028339;28;20423;-69
2023/01/28 06:11:44;;;;;;;3.25;1.60;;;1.40;83.80;;;0.36;71.83;102249.59;5028090;28;20407;-68
2023/01/28 06:14:12;;;;;;;3.00;1.55;;;1.40;84.80;;;0.35;70.86;102253.13;5028297;28;20784;-69
2023/01/28 06:16:40;;;;;;;2.65;1.70;;;1.40;84.50;;;0.34;71.14;102254.91;5028048;28;20423;-69
2023/01/28 06:19:08;;;;;;;4.07;1.85;;;1.40;84.50;;;0.32;70.11;102254.13;5028284;28;20822;-69
2023/01/28 06:21:37;;;;;;;4.35;1.80;;;1.40;84.10;;;0.31;70.18;102246.28;5028279;28;20426;-69
2023/01/28 06:24:06;;;;;;;4.75;1.77;;;1.40;83.90;;;0.30;70.58;102248.06;5028341;28;20415;-69
2023/01/28 06:26:34;;;;;;;3.58;1.83;;;1.40;83.50;;;0.26;70.32;102243.81;5028071;28;20430;-69
2023/01/28 06:29:02;;;;;;;3.33;1.60;;;1.40;83.10;;;0.17;68.18;102254.69;5027778;28;20423;-68
2023/01/28 06:31:30;;;;;;;3.97;1.70;;;1.30;81.40;;;0.21;69.94;102256.28;5027810;28;20811;-69
2023/01/28 06:33:58;;;;;;;5.15;2.10;;;1.30;82.90;;;0.23;69.56;102254.47;5028024;28;20399;-69
2023/01/28 06:36:26;;;;;;;3.28;1.70;;;1.40;83.00;;;0.27;69.82;102258.72;5027970;28;20411;-68
2023/01/28 06:38:56;;;;;;;3.10;1.60;;;1.40;83.00;;;0.26;68.23;102261.41;5028317;28;20399;-68
2023/01/28 06:41:24;;;;;;;3.47;1.70;;;1.40;81.70;;;0.22;68.20;102255.38;5027456;28;20407;-69
2023/01/28 06:43:52;;;;;;;5.28;2.10;;;1.30;81.20;;;0.23;68.84;102264.16;5027868;28;20410;-69
2023/01/28 06:46:20;;;;;;;4.47;1.70;;;1.40;81.60;;;0.26;69.96;102271.94;5031377;28;20399;-69
2023/01/28 06:48:48;;;;;;;5.05;1.85;;;1.40;82.30;;;0.26;69.21;102266.66;5031517;28;20807;-69
2023/01/28 06:51:16;;;;;;;6.38;2.13;;;1.40;82.60;;;0.24;69.43;102261.44;5031898;28;20411;-69
2023/01/28 06:53:44;;;;;;;4.22;1.80;;;1.40;83.10;;;0.24;70.63;102258.81;5031673;28;20402;-69
2023/01/28 06:56:14;;;;;;;2.85;1.70;;;1.40;83.40;;;0.22;70.26;102257.16;5031376;28;20906;-69
2023/01/28 06:58:42;;;;;;;4.57;1.83;;;1.30;83.90;;;0.24;70.62;102264.06;5031311;28;20900;-69
2023/01/28 07:01:11;;;;;;;3.95;1.90;;;1.40;84.50;;;0.25;71.64;102265.78;5031518;28;20418;-69
2023/01/28 07:03:39;;;;;;;4.05;1.85;;;1.40;84.70;;;0.24;71.03;102269.34;5029718;28;20434;-70
2023/01/28 07:06:07;;;;;;;4.20;1.75;;;1.30;84.70;;;0.21;72.02;102260.69;5024665;28;20411;-69
2023/01/28 07:08:36;;;;;;;5.22;1.92;;;1.30;84.50;;;0.21;69.50;102266.81;5031376;28;20411;-69
2023/01/28 07:11:05;;;;;;;6.38;1.98;;;1.30;82.80;;;0.22;68.03;102268.56;5029826;28;20422;-69
2023/01/28 07:13:35;;;;;;;5.03;1.85;;;1.30;83.00;;;0.17;68.80;102265.22;5031021;28;21064;-69
2023/01/28 07:16:03;;;;;;;1.73;1.35;;;1.30;81.40;;;0.16;68.21;102262.66;5030700;28;20415;-68
2023/01/28 07:18:31;;;;;;;3.42;1.55;;;1.20;81.50;;;0.14;67.18;102262.69;5031169;28;20414;-68
2023/01/28 07:20:59;;;;;;;2.73;1.83;;;1.30;79.70;;;0.16;68.85;102255.63;5030823;28;20818;-69
2023/01/28 07:23:28;;;;;;;4.00;1.60;;;1.30;81.00;;;0.16;69.26;102263.53;5031169;28;20411;-69
2023/01/28 07:26:01;;;;;;;2.78;1.40;;;1.30;82.30;;;0.20;69.71;102261.63;5031082;28;20485;-69
2023/01/28 07:28:29;;;;;;;2.05;1.50;;;1.30;82.40;;;0.18;70.30;102261.66;5031557;28;20407;-69
2023/01/28 07:30:58;;;;;;;1.95;1.60;;;1.30;84.00;;;0.20;70.36;102267.75;5031624;28;20479;-68
2023/01/28 07:33:27;;;;;;;3.10;2.22;;;1.30;84.00;;;0.19;70.91;102268.66;5031359;28;20411;-69
2023/01/28 07:35:55;;;;;;;4.20;2.70;;;1.30;84.40;;;0.22;71.36;102272.94;5031035;28;20402;-69
2023/01/28 07:38:23;;;;;;;5.15;2.10;;;1.30;84.10;;;0.17;69.00;102273.13;5030785;28;20800;-69
2023/01/28 07:40:52;;;;;;;4.28;1.77;;;1.30;83.20;;;0.15;69.80;102271.47;5030778;28;20398;-69
2023/01/28 07:43:20;;;;;;;4.90;2.30;;;1.20;83.30;;;0.16;70.53;102271.41;5030729;28;20424;-69
2023/01/28 07:45:48;;;;;;;6.10;2.22;;;1.30;84.20;;;0.16;71.52;102279.31;5030707;28;20402;-69
2023/01/28 07:48:17;;;;;;;5.97;2.10;;;1.20;84.20;;;0.18;70.66;102280.09;5030601;28;20819;-69
2023/01/28 07:50:47;;;;;;;4.17;2.10;;;1.30;83.70;;;0.18;70.18;102277.47;5030270;28;20764;-69
2023/01/28 07:53:15;;;;;;;3.83;2.10;;;1.30;83.40;;;0.22;70.07;102276.44;5030560;28;20399;-68
2023/01/28 07:55:43;;;;;;;4.55;2.00;;;1.30;83.30;;;0.21;67.97;102281.75;5029657;28;20438;-69
2023/01/28 07:58:12;;;;;;;3.38;1.90;;;1.30;82.50;;;0.17;68.24;102286.28;5030184;28;20407;-68
2023/01/28 08:00:40;;;;;;;7.00;1.67;;;1.30;81.80;;;0.18;68.29;102287.16;5030105;28;20399;-69
2023/01/28 08:03:14;;;;;;;6.45;1.90;;;1.30;81.20;;;0.17;69.36;102290.72;5030428;28;20407;-69
2023/01/28 08:05:47;;;;;;;3.78;1.90;;;1.30;82.10;;;0.16;66.89;102289.00;5029151;28;20411;-69
2023/01/28 08:08:15;;;;;;;3.80;1.70;;;1.30;80.80;;;0.17;68.06;102283.66;5030002;28;20486;-70
2023/01/28 08:10:44;;;;;;;4.85;1.95;;;1.30;80.40;;;0.19;68.40;102283.59;5030148;28;20422;-69
2023/01/28 08:13:14;;;;;;;5.03;1.90;;;1.30;80.50;;;0.22;68.25;102286.13;5030729;28;20421;-69
2023/01/28 08:15:42;;;;;;;4.78;1.65;;;1.30;81.30;;;0.19;66.56;102292.38;5029521;28;20414;-69
2023/01/28 08:18:13;;;;;;;4.00;1.80;;;1.30;80.20;;;0.21;67.73;102300.19;5030242;28;20399;-69
2023/01/28 08:20:45;;;;;;;7.45;2.00;;;1.30;80.70;;;0.23;69.24;102303.66;5030383;28;20395;-69
2023/01/28 08:23:15;;;;;;;4.80;1.73;;;1.30;81.20;;;0.26;69.54;102308.81;5029887;28;20418;-69
2023/01/28 08:25:44;;;;;;;4.15;1.95;;;1.40;81.90;;;0.26;69.30;102301.75;5028842;28;20465;-69
2023/01/28 08:28:13;;;;;;;4.75;1.70;;;1.40;81.70;;;0.19;68.38;102310.81;5029680;28;20411;-68
2023/01/28 08:30:42;;;;;;;4.75;1.80;;;1.30;81.10;;;0.22;68.92;102320.38;5029478;28;20427;-69
2023/01/28 08:33:13;;;;;;;3.50;1.75;;;1.30;81.80;;;0.15;67.01;102321.50;5029266;28;20430;-69
2023/01/28 08:35:43;;;;;;;4.03;1.80;;;1.30;80.60;;;0.08;67.54;102323.50;5028965;28;20472;-69
2023/01/28 08:38:14;;;;;;;2.85;1.67;;;1.20;79.50;;;0.05;67.06;102323.59;5029413;28;21088;-69
2023/01/28 08:40:42;;;;;;;3.20;1.75;;;1.20;79.30;;;0.11;67.64;102320.75;5028501;28;20896;-69
2023/01/28 08:43:10;;;;;;;3.10;1.80;;;1.20;80.30;;;0.03;66.45;102321.97;5029671;28;20411;-68
2023/01/28 08:45:40;;;;;;;4.72;2.00;;;1.20;79.20;;;0.11;68.52;102327.78;5029119;28;20414;-67
2023/01/28 08:48:15;;;;;;;4.40;1.88;;;1.30;80.90;;;0.13;67.48;102329.47;5023344;28;20404;-68
2023/01/28 08:50:45;;;;;;;4.13;1.70;;;1.30;80.50;;;0.15;68.05;102335.53;5026283;28;20417;-68
2023/01/28 08:53:16;;;;;;;5.10;1.92;;;1.30;79.90;;;0.18;66.97;102335.41;5024785;28;20430;-68
2023/01/28 08:55:45;;;;;;;5.05;1.98;;;1.30;80.20;;;0.18;67.36;102337.19;5027658;28;20442;-69
2023/01/28 08:58:15;;;;;;;3.25;1.80;;;1.30;79.80;;;0.23;68.89;102346.66;5028291;28;20411;-69
2023/01/28 09:00:45;;;;;;;4.20;2.05;;;1.40;81.20;;;0.27;67.84;102348.28;5028436;28;20395;-69
2023/01/28 09:03:14;;;;;;;3.72;1.83;;;1.40;80.80;;;0.29;69.61;102349.06;5028933;28;20932;-69
2023/01/28 09:05:42;;;;;;;4.95;2.15;;;1.40;81.30;;;0.34;67.49;102357.63;5028667;28;20411;-69
2023/01/28 09:08:14;;;;;;;3.47;2.10;;;1.40;80.90;;;0.35;67.95;102358.50;5028393;28;20423;-69
2023/01/28 09:10:43;;;;;;;4.85;1.80;;;1.50;80.70;;;0.37;67.53;102357.56;5028642;28;20432;-70
2023/01/28 09:13:14;;;;;;;3.30;1.90;;;1.40;79.80;;;0.39;67.09;102357.47;5028746;28;20414;-69
2023/01/28 09:15:43;;;;;;;4.38;2.20;;;1.50;79.70;;;0.42;67.68;102362.63;5028718;28;20437;-69
2023/01/28 09:18:11;;;;;;;4.75;2.05;;;1.50;79.70;;;0.42;67.25;102366.13;5029085;28;20410;-69
2023/01/28 09:20:39;;;;;;;3.90;1.92;;;1.50;79.40;;;0.37;66.99;102373.38;5028397;28;20403;-69
2023/01/28 09:23:08;;;;;;;4.40;2.00;;;1.50;79.60;;;0.29;67.57;102372.78;5022509;28;20415;-68
2023/01/28 09:25:37;;;;;;;5.90;2.30;;;1.40;80.00;;;0.30;67.66;102392.94;5028800;28;20442;-69
2023/01/28 09:28:06;;;;;;;5.27;2.13;;;1.40;80.00;;;0.34;68.74;102388.41;5021915;28;20486;-69
2023/01/28 09:30:36;;;;;;;4.60;2.10;;;1.50;81.30;;;0.33;68.30;102391.97;5028848;28;20515;-68
2023/01/28 09:33:06;;;;;;;4.70;2.20;;;1.50;81.00;;;0.35;68.99;102390.13;5028364;28;21106;-69
2023/01/28 09:35:35;;;;;;;3.38;2.10;;;1.50;81.50;;;0.37;69.01;102402.34;5028741;28;20464;-69
2023/01/28 09:38:03;;;;;;;4.78;2.28;;;1.50;81.60;;;0.35;68.53;102396.25;5028965;28;20405;-69
2023/01/28 09:40:40;;;;;;;4.28;2.10;;;1.50;81.40;;;0.28;68.21;102392.13;5027994;28;20445;-69
2023/01/28 09:43:41;;;;;;;5.35;2.40;;;1.40;80.80;;;0.26;68.15;102390.47;5008963;28;20475;-69
2023/01/28 09:46:14;;;;;;;3.67;2.30;;;1.40;80.40;;;0.30;67.46;102402.63;5008680;28;20450;-69
2023/01/28 09:48:48;;;;;;;6.65;2.50;;;1.40;82.00;;;0.27;68.25;102395.69;5008819;28;20869;-69
2023/01/28 09:51:32;;;;;;;5.05;2.00;;;1.40;81.10;;;0.27;69.35;102398.31;5008563;28;20451;-69
2023/01/28 09:54:12;;;;;;;4.57;2.10;;;1.40;81.70;;;0.25;67.80;102400.13;5008911;28;20413;-69
2023/01/28 09:56:47;;;;;;;8.18;2.70;;;1.40;80.90;;;0.28;67.87;102394.75;5008701;28;20419;-69
2023/01/28 09:59:20;;;;;;;5.13;2.55;;;1.40;80.90;;;0.27;68.51;102400.09;5025336;28;20414;-69
2023/01/28 10:01:58;;;;;;;3.25;2.40;;;1.40;81.20;;;0.23;68.27;102396.72;5027001;28;20756;-69
2023/01/28 10:04:48;;;;;;;4.10;2.25;;;1.40;80.80;;;0.28;69.80;102405.28;5028078;28;20772;-68
2023/01/28 10:07:33;;;;;;;4.75;2.50;;;1.40;81.70;;;0.30;68.89;102403.47;5023284;28;20408;-68
2023/01/28 10:10:11;;;;;;;3.72;2.20;;;1.40;80.90;;;0.30;69.99;102398.22;5027833;28;20414;-68
2023/01/28 10:13:24;;;;;;;3.97;2.40;;;1.50;81.20;;;0.27;67.82;102411.50;5028141;28;20920;-68
2023/01/28 10:16:14;;;;;;;3.38;2.60;;;1.40;81.20;;;0.29;68.31;102401.75;5028182;28;20398;-68
2023/01/28 10:18:48;;;;;;;4.47;2.60;;;1.40;80.80;;;0.28;69.38;102384.22;5028031;28;20407;-69
2023/01/28 10:21:23;;;;;;;4.63;2.80;;;1.40;81.10;;;0.30;69.05;102392.94;5027964;28;20410;-68
2023/01/28 10:24:05;;;;;;;3.75;2.25;;;1.40;81.50;;;0.29;66.92;102401.75;5028606;28;20469;-69
2023/01/28 10:26:38;;;;;;;4.78;2.35;;;1.40;80.40;;;0.32;67.23;102391.09;5027976;28;20842;-68
2023/01/28 10:29:17;;;;;;;5.10;2.53;;;1.50;80.50;;;0.33;67.90;102382.28;5027141;28;20423;-69
2023/01/28 10:31:53;;;;;;;6.00;2.75;;;1.50;80.00;;;0.32;68.58;102380.56;5027927;28;20449;-69
2023/01/28 10:34:22;;;;;;;3.55;2.20;;;1.50;80.30;;;0.34;67.03;102375.25;5028118;28;20411;-69
2023/01/28 10:36:52;;;;;;;4.20;2.88;;;1.50;80.10;;;0.37;67.97;102368.09;5027640;28;20407;-69
2023/01/28 10:39:23;;;;;;;6.45;2.60;;;1.50;79.60;;;0.41;67.04;102374.94;5027083;28;20394;-69
2023/01/28 10:41:52;;;;;;;3.60;2.30;;;1.50;79.50;;;0.35;65.16;102376.94;5027750;28;20395;-69
2023/01/28 10:44:34;;;;;;;4.33;2.50;;;1.60;78.20;;;0.40;66.72;102385.56;5027390;28;20507;-69
2023/01/28 10:47:13;;;;;;;4.20;2.30;;;1.50;79.30;;;0.45;67.07;102381.84;5027704;28;20399;-70
2023/01/28 10:49:49;;;;;;;5.10;2.50;;;1.60;80.40;;;0.45;68.25;102380.97;5027544;28;20411;-70
2023/01/28 10:52:18;;;;;;;5.03;2.53;;;1.60;79.70;;;0.50;67.38;102384.31;5028169;28;20426;-70
2023/01/28 10:54:46;;;;;;;5.87;2.60;;;1.70;80.00;;;0.51;68.09;102384.22;5027081;28;20419;-70
2023/01/28 10:57:19;;;;;;;3.95;2.30;;;1.60;80.80;;;0.51;67.73;102386.88;5027455;28;20902;-69
2023/01/28 10:59:49;;;;;;;5.40;2.60;;;1.60;79.90;;;0.52;67.33;102387.72;5026802;28;20402;-69
2023/01/28 11:02:28;;;;;;;4.50;2.80;;;1.60;79.20;;;0.50;68.10;102390.44;5027439;28;20411;-68
2023/01/28 11:05:14;;;;;;;7.82;2.70;;;1.60;80.60;;;0.42;67.29;102386.34;5026870;28;20418;-68
2023/01/28 11:07:42;;;;;;;4.22;2.80;;;1.60;79.70;;;0.36;66.61;102392.72;5027080;28;20403;-69
2023/01/28 11:10:28;;;;;;;4.82;2.90;;;1.50;79.40;;;0.37;66.35;102383.91;5027212;28;20403;-69
2023/01/28 11:12:58;;;;;;;5.63;2.90;;;1.60;78.60;;;0.36;67.01;102390.06;5027546;28;20435;-68
2023/01/28 11:15:29;;;;;;;3.65;2.70;;;1.50;79.10;;;0.42;67.56;102389.00;5026739;28;20427;-69